createdAt,value
2023-01-02T00:03:36.111Z,98960.69
2023-01-02T00:08:41.350Z,98964.81
2023-01-02T00:13:46.381Z,98960.84
2023-01-02T00:18:54.401Z,98954.75
2023-01-02T00:23:59.346Z,98957.09
2023-01-02T00:29:05.280Z,98951.47
2023-01-02T00:34:13.115Z,98955.78
2023-01-02T00:39:18.161Z,98951.19
2023-01-02T00:44:23.927Z,98934.53
2023-01-02T00:49:33.284Z,98928.06
2023-01-02T00:54:38.203Z,98910.78
2023-01-02T00:59:43.101Z,98923.09
2023-01-02T01:04:50.923Z,98919.56
2023-01-02T01:09:55.758Z,98910.63
2023-01-02T01:15:00.728Z,98916.78
2023-01-02T01:20:09.746Z,98915.84
2023-01-02T01:25:14.852Z,98911.28
2023-01-02T01:30:19.796Z,98904.69
2023-01-02T01:35:27.507Z,98901.69
2023-01-02T01:40:39.618Z,98893.19
2023-01-02T01:45:46.463Z,98891.16
2023-01-02T01:50:53.977Z,98902.75
2023-01-02T01:56:06.838Z,98901.34
2023-01-02T02:01:13.927Z,98897.69
2023-01-02T02:06:23.144Z,98898.44
2023-01-02T02:11:28.428Z,98893.25
2023-01-02T02:16:43.862Z,98890.44
2023-01-02T02:22:17.696Z,98885.88
2023-01-02T02:27:46.458Z,98873.50
2023-01-02T02:33:18.286Z,98885.47
2023-01-02T02:38:36.335Z,98870.59
2023-01-02T02:43:49.869Z,98865.88
2023-01-02T02:49:03.389Z,98881.88
2023-01-02T02:54:14.010Z,98883.69
2023-01-02T02:59:19.658Z,98875.22
2023-01-02T03:04:29.104Z,98877.22
2023-01-02T03:09:41.824Z,98873.88
2023-01-02T03:14:54.927Z,98864.56
2023-01-02T03:20:10.076Z,98863.25
2023-01-02T03:25:18.143Z,98858.13
2023-01-02T03:30:25.618Z,98866.84
2023-01-02T03:35:39.346Z,98860.03
2023-01-02T03:40:48.841Z,98845.47
2023-01-02T03:46:04.457Z,98831.00
2023-01-02T03:51:13.424Z,98823.81
2023-01-02T03:56:26.183Z,98829.00
2023-01-02T04:01:47.044Z,98816.59
2023-01-02T04:07:02.739Z,98798.06
2023-01-02T04:12:16.543Z,98807.97
2023-01-02T04:17:25.162Z,98810.78
2023-01-02T04:22:38.401Z,98810.88
2023-01-02T04:27:49.359Z,98811.47
2023-01-02T04:32:55.624Z,98812.91
2023-01-02T04:38:10.442Z,98821.38
2023-01-02T04:43:25.347Z,98816.84
2023-01-02T04:48:31.642Z,98817.97
2023-01-02T04:53:39.486Z,98820.41
2023-01-02T04:58:45.007Z,98819.81
2023-01-02T05:03:54.134Z,98818.63
2023-01-02T05:09:02.001Z,98832.19
2023-01-02T05:14:07.823Z,98828.69
2023-01-02T05:19:13.021Z,98822.38
2023-01-02T05:24:20.707Z,98821.75
2023-01-02T05:29:26.444Z,98826.31
2023-01-02T05:34:31.581Z,98835.16
2023-01-02T05:39:39.158Z,98822.34
2023-01-02T05:44:44.094Z,98823.69
2023-01-02T05:49:50.299Z,98821.63
2023-01-02T05:54:58.221Z,98831.91
2023-01-02T06:00:04.432Z,98825.22
2023-01-02T06:05:17.841Z,98832.03
2023-01-02T06:10:25.446Z,98828.97
2023-01-02T06:15:35.062Z,98828.56
2023-01-02T06:20:40.802Z,98831.13
2023-01-02T06:25:49.954Z,98850.03
2023-01-02T06:30:56.152Z,98833.50
2023-01-02T06:36:05.353Z,98838.09
2023-01-02T06:41:17.432Z,98837.41
2023-01-02T06:46:26.788Z,98840.69
2023-01-02T06:51:34.678Z,98844.41
2023-01-02T06:56:47.469Z,98843.13
2023-01-02T07:02:01.629Z,98836.53
2023-01-02T07:07:11.892Z,98834.41
2023-01-02T07:12:21.958Z,98828.97
2023-01-02T07:17:27.342Z,98849.69
2023-01-02T07:22:32.304Z,98835.09
2023-01-02T07:27:39.911Z,98847.31
2023-01-02T07:32:45.620Z,98848.97
2023-01-02T07:37:52.220Z,98862.97
2023-01-02T07:43:00.007Z,98867.13
2023-01-02T07:48:06.069Z,98862.28
2023-01-02T07:53:11.210Z,98889.28
2023-01-02T07:58:32.135Z,98886.44
2023-01-02T08:03:39.382Z,98896.59
2023-01-02T08:08:45.928Z,98909.19
2023-01-02T08:13:54.587Z,98909.00
2023-01-02T08:18:59.657Z,98905.25
2023-01-02T08:24:10.602Z,98907.63
2023-01-02T08:29:31.091Z,98906.84
2023-01-02T08:34:38.431Z,98897.56
2023-01-02T08:39:45.652Z,98908.03
2023-01-02T08:44:55.029Z,98916.19
2023-01-02T08:50:00.147Z,98925.88
2023-01-02T08:55:06.137Z,98925.88
2023-01-02T09:00:17.532Z,98923.69
2023-01-02T09:05:25.031Z,98916.19
2023-01-02T09:10:36.115Z,98917.88
2023-01-02T09:15:47.366Z,98928.63
2023-01-02T09:20:54.431Z,98919.84
2023-01-02T09:26:03.166Z,98918.78
2023-01-02T09:31:13.331Z,98916.50
2023-01-02T09:36:22.537Z,98909.41
2023-01-02T09:41:34.913Z,98933.06
2023-01-02T09:46:55.648Z,98943.31
2023-01-02T09:52:00.969Z,98933.84
2023-01-02T09:57:20.086Z,98939.16
2023-01-02T10:02:42.545Z,98934.66
2023-01-02T10:07:55.969Z,98937.59
2023-01-02T10:13:09.144Z,98923.69
2023-01-02T10:18:23.111Z,98934.75
2023-01-02T10:23:30.999Z,98922.41
2023-01-02T10:28:47.536Z,98931.19
2023-01-02T10:34:03.205Z,98917.66
2023-01-02T10:39:16.426Z,98918.56
2023-01-02T10:44:27.780Z,98907.41
2023-01-02T10:49:37.937Z,98898.13
2023-01-02T10:54:58.978Z,98897.84
2023-01-02T11:00:06.166Z,98888.88
2023-01-02T11:05:23.441Z,98874.91
2023-01-02T11:10:31.103Z,98882.81
2023-01-02T11:15:37.230Z,98874.69
2023-01-02T11:20:52.376Z,98880.59
2023-01-02T11:25:57.674Z,98885.34
2023-01-02T11:31:14.844Z,98885.56
2023-01-02T11:36:22.919Z,98883.69
2023-01-02T11:41:52.135Z,98879.59
2023-01-02T11:46:58.642Z,98878.78
2023-01-02T11:52:08.904Z,98870.09
2023-01-02T11:57:18.899Z,98866.06
2023-01-02T12:02:30.066Z,98866.44
2023-01-02T12:07:46.208Z,98875.13
2023-01-02T12:13:03.380Z,98870.03
2023-01-02T12:18:22.109Z,98871.38
2023-01-02T12:23:39.804Z,98858.72
2023-01-02T12:29:07.335Z,98844.94
2023-01-02T12:34:25.492Z,98847.97
2023-01-02T12:39:55.265Z,98842.09
2023-01-02T12:45:03.008Z,98847.91
2023-01-02T12:50:34.060Z,98854.06
2023-01-02T12:55:52.789Z,98855.66
2023-01-02T13:01:15.792Z,98856.63
2023-01-02T13:06:44.496Z,98860.25
2023-01-02T13:12:02.973Z,98856.41
2023-01-02T13:17:27.662Z,98850.59
2023-01-02T13:22:39.935Z,98849.66
2023-01-02T13:27:50.164Z,98859.41
2023-01-02T13:32:55.351Z,98862.19
2023-01-02T13:38:05.407Z,98871.31
2023-01-02T13:43:20.459Z,98869.09
2023-01-02T13:48:35.103Z,98878.47
2023-01-02T13:53:43.168Z,98879.94
2023-01-02T13:58:55.334Z,98885.00
2023-01-02T14:04:32.493Z,98894.59
2023-01-02T14:10:13.616Z,98896.91
2023-01-02T14:15:26.260Z,98903.19
2023-01-02T14:20:35.740Z,98901.25
2023-01-02T14:25:50.772Z,98903.56
2023-01-02T14:31:03.241Z,98903.69
2023-01-02T14:36:13.802Z,98910.28
2023-01-02T14:42:06.692Z,98926.09
2023-01-02T14:47:20.855Z,98941.75
2023-01-02T14:52:30.798Z,98928.03
2023-01-02T14:57:40.175Z,98927.06
2023-01-02T15:02:50.981Z,98931.06
2023-01-02T15:08:00.154Z,98927.13
2023-01-02T15:13:08.126Z,98929.44
2023-01-02T15:18:20.653Z,98931.38
2023-01-02T15:23:28.307Z,98919.13
2023-01-02T15:28:35.988Z,98928.41
2023-01-02T15:33:43.628Z,98927.63
2023-01-02T15:38:50.442Z,98939.34
2023-01-02T15:44:11.172Z,98952.38
2023-01-02T15:49:20.292Z,98954.00
2023-01-02T15:54:27.546Z,98957.13
2023-01-02T15:59:38.948Z,98956.28
2023-01-02T16:04:46.567Z,98959.53
2023-01-02T16:09:59.994Z,98961.38
2023-01-02T16:15:14.794Z,98956.38
2023-01-02T16:20:27.686Z,98965.81
2023-01-02T16:25:34.183Z,98967.41
2023-01-02T16:30:42.845Z,98974.63
2023-01-02T16:36:00.211Z,98984.84
2023-01-02T16:41:12.591Z,98986.16
2023-01-02T16:46:19.072Z,98984.09
2023-01-02T16:51:27.074Z,98992.59
2023-01-02T16:56:33.046Z,99002.81
2023-01-02T17:01:38.232Z,99024.22
2023-01-02T17:06:46.347Z,99013.38
2023-01-02T17:12:03.155Z,99012.72
2023-01-02T17:17:09.645Z,99039.94
2023-01-02T17:22:17.328Z,99034.91
2023-01-02T17:27:22.854Z,99044.94
2023-01-02T17:32:28.630Z,99034.56
2023-01-02T17:37:37.541Z,99039.63
2023-01-02T17:42:44.175Z,99041.19
2023-01-02T17:48:02.215Z,99037.44
2023-01-02T17:53:11.998Z,99042.78
2023-01-02T17:58:19.057Z,99052.41
2023-01-02T18:03:24.170Z,99043.44
2023-01-02T18:08:34.650Z,99043.41
2023-01-02T18:13:44.307Z,99043.25
2023-01-02T18:18:49.648Z,99039.81
2023-01-02T18:24:01.668Z,99046.88
2023-01-02T18:29:10.114Z,99039.50
2023-01-02T18:34:46.576Z,99045.13
2023-01-02T18:39:48.942Z,99052.41
2023-01-02T18:44:57.702Z,99056.31
2023-01-02T18:50:35.073Z,99057.72
2023-01-02T18:55:42.640Z,99052.69
2023-01-02T19:00:48.793Z,99049.72
2023-01-02T19:05:53.840Z,99050.66
2023-01-02T19:11:22.290Z,99059.63
2023-01-02T19:16:28.813Z,99060.72
2023-01-02T19:21:38.067Z,99058.16
2023-01-02T19:26:48.707Z,99059.75
2023-01-02T19:32:00.016Z,99059.44
2023-01-02T19:37:25.771Z,99060.69
2023-01-02T19:42:35.748Z,99064.44
2023-01-02T19:47:42.377Z,99066.66
2023-01-02T19:52:47.983Z,99062.25
2023-01-02T19:57:57.548Z,99062.44
2023-01-02T20:03:03.187Z,99071.72
2023-01-02T20:08:16.720Z,99081.91
2023-01-02T20:13:26.999Z,99092.41
2023-01-02T20:18:32.897Z,99108.72
2023-01-02T20:23:39.931Z,99117.50
2023-01-02T20:28:48.977Z,99148.72
2023-01-02T20:33:56.443Z,99160.19
2023-01-02T20:39:03.128Z,99184.44
2023-01-02T20:44:15.877Z,99205.47
2023-01-02T20:49:25.302Z,99232.94
2023-01-02T20:54:31.259Z,99234.09
2023-01-02T20:59:39.490Z,99266.78
2023-01-02T21:04:45.123Z,99282.44
2023-01-02T21:09:50.344Z,99289.03
2023-01-02T21:14:58.409Z,99295.34
2023-01-02T21:20:04.537Z,99300.53
2023-01-02T21:25:10.299Z,99303.22
2023-01-02T21:30:18.442Z,99313.56
2023-01-02T21:35:24.929Z,99318.88
2023-01-02T21:40:30.174Z,99343.72
2023-01-02T21:45:40.349Z,99346.31
2023-01-02T21:50:45.645Z,99353.38
2023-01-02T21:55:50.751Z,99358.91
2023-01-02T22:00:58.517Z,99363.50
2023-01-02T22:06:03.454Z,99375.41
2023-01-02T22:11:21.025Z,99380.03
2023-01-02T22:16:28.612Z,99386.50
2023-01-02T22:21:36.549Z,99390.66
2023-01-02T22:26:42.886Z,99403.13
2023-01-02T22:31:51.765Z,99417.63
2023-01-02T22:36:57.322Z,99414.34
2023-01-02T22:42:48.798Z,99418.66
2023-01-02T22:47:46.560Z,99429.47
2023-01-02T22:52:52.717Z,99433.66
2023-01-02T22:57:58.077Z,99438.63
2023-01-02T23:03:05.678Z,99438.34
2023-01-02T23:08:11.091Z,99443.75
2023-01-02T23:13:16.054Z,99450.03
2023-01-02T23:18:35.873Z,99464.38
2023-01-02T23:23:41.730Z,99468.38
2023-01-02T23:34:16.814Z,99463.91
2023-01-02T23:39:23.418Z,99464.22
2023-01-02T23:44:29.002Z,99466.13
2023-01-02T23:49:36.503Z,99473.00
2023-01-02T23:54:41.992Z,99491.25
2023-01-02T23:59:47.040Z,99512.50
